Hoofdpagina
Satellietbeelden 15-daagse BerichtenKlimaatMaritieme meteorologie Cyclonen Bliksem VliegveldenFAQ Nieuwsbrief Over ons
Weer : Europa Afrika Noord-Amerika Zuid-Amerika Azië Australië-Oceanië Anderen
Talen Contact

Oostende, België

breedte: 51-12N, lengte: 002-52E, hoogte: 4 m


METAR: EBOS 221720Z 34011KT 9999 SCT007 20/17 Q1020 NOSIG
short-TAF: verouderd (39004 uren)
long-TAF: EBOS 221720Z 2218/2324 02009KT CAVOK

Uur: 19:26 (17:26 UTC)

Actueel weer

Dit bericht werd 6 minuten geleden gemaakt, om 17:20 UTC  
Wind 11 kt van noord/noordwesten
Temperatuur 20°C
Vochtigheid 83%
Druk 1020 hPa
Zicht 10 km of meer
Verspreide wolken op een hoogte van 700 ft

Eenheden wisselen

Verwachting

Dit bericht werd 1 minuten geleden gemaakt, om 17:25 UTC  
Verwachting geldig van 22 om 18 UTC tot 23 om 24 UTC
Wind 09 kt van noord/noordoosten
Zicht 10 km of meer
geen wolken beneden 1500 m en geen cumulonimbus wolken
Voor de informatie op deze site gelden een verklaring van afwijzing van aansprakelijkheid
Weer : Europa Afrika Noord-Amerika Zuid-Amerika Azië Australië-Oceanië Anderen
Satellietbeelden 15-daagse BerichtenKlimaatMaritieme meteorologie Cyclonen Bliksem VliegveldenFAQ Talen Contact Nieuwsbrief Over ons